createdAt,value
2022-10-23T00:01:47.073Z,6.63
2022-10-23T00:04:17.075Z,6.75
2022-10-23T00:06:45.101Z,6.68
2022-10-23T00:09:16.079Z,6.97
2022-10-23T00:11:47.576Z,7.55
2022-10-23T00:16:43.380Z,6.95
2022-10-23T00:19:11.109Z,7.22
2022-10-23T00:21:39.484Z,8.57
2022-10-23T00:26:39.403Z,8.00
2022-10-23T00:29:07.972Z,7.22
2022-10-23T00:31:36.195Z,7.28
2022-10-23T00:34:08.036Z,9.15
2022-10-23T00:36:36.827Z,8.13
2022-10-23T00:39:05.768Z,7.82
2022-10-23T00:41:34.041Z,9.35
2022-10-23T00:44:04.966Z,8.60
2022-10-23T00:46:33.159Z,8.32
2022-10-23T00:49:01.187Z,8.05
2022-10-23T00:51:38.509Z,8.68
2022-10-23T00:56:56.881Z,8.20
2022-10-23T00:59:24.633Z,8.27
2022-10-23T01:01:52.738Z,7.25
2022-10-23T01:04:20.497Z,7.15
2022-10-23T01:07:07.170Z,7.60
2022-10-23T01:10:01.575Z,8.10
2022-10-23T01:12:35.017Z,7.60
2022-10-23T01:15:08.878Z,6.78
2022-10-23T01:17:43.781Z,7.20
2022-10-23T01:20:24.902Z,7.35
2022-10-23T01:22:52.779Z,6.90
2022-10-23T01:25:45.327Z,6.57
2022-10-23T01:28:19.206Z,7.50
2022-10-23T01:30:47.966Z,6.88
2022-10-23T01:33:37.285Z,7.47
2022-10-23T01:36:10.685Z,7.25
2022-10-23T01:38:50.008Z,7.43
2022-10-23T01:41:25.246Z,7.30
2022-10-23T01:46:22.044Z,6.90
2022-10-23T01:48:53.586Z,6.10
2022-10-23T01:53:53.238Z,6.53
2022-10-23T01:56:26.846Z,6.15
2022-10-23T01:58:56.709Z,6.88
2022-10-23T02:01:28.356Z,7.13
2022-10-23T02:03:56.813Z,8.30
2022-10-23T02:06:26.106Z,6.80
2022-10-23T02:08:53.940Z,8.52
2022-10-23T02:11:22.158Z,7.47
2022-10-23T02:14:17.119Z,8.40
2022-10-23T02:16:53.048Z,8.50
2022-10-23T02:19:33.624Z,9.07
2022-10-23T02:22:23.106Z,9.57
2022-10-23T02:27:34.774Z,8.98
2022-10-23T02:30:06.738Z,9.80
2022-10-23T02:32:38.911Z,9.65
2022-10-23T02:37:35.190Z,9.70
2022-10-23T02:40:05.868Z,10.48
2022-10-23T02:43:11.271Z,12.23
2022-10-23T02:45:50.744Z,12.38
2022-10-23T02:48:36.711Z,12.45
2022-10-23T02:51:21.460Z,12.75
2022-10-23T02:56:47.291Z,13.35
2022-10-23T02:59:34.233Z,15.45
2022-10-23T03:02:06.243Z,14.23
2022-10-23T03:04:40.464Z,15.48
2022-10-23T03:07:13.274Z,15.32
2022-10-23T03:09:42.702Z,17.13
2022-10-23T03:12:10.334Z,15.73
2022-10-23T03:14:37.880Z,15.90
2022-10-23T03:17:06.112Z,16.13
2022-10-23T03:19:33.675Z,17.65
2022-10-23T03:22:04.607Z,18.60
2022-10-23T03:24:32.098Z,17.23
2022-10-23T03:26:59.621Z,15.65
2022-10-23T03:29:32.535Z,15.13
2022-10-23T03:32:00.246Z,17.33
2022-10-23T03:34:28.360Z,16.77
2022-10-23T03:36:56.158Z,16.60
2022-10-23T03:39:23.830Z,18.17
2022-10-23T03:41:51.371Z,17.55
2022-10-23T03:44:19.215Z,18.65
2022-10-23T03:46:47.224Z,16.88
2022-10-23T03:49:15.044Z,19.73
2022-10-23T03:51:51.848Z,16.95
2022-10-23T03:54:25.882Z,17.67
2022-10-23T03:56:57.368Z,19.33
2022-10-23T03:59:27.106Z,18.80
2022-10-23T04:01:55.147Z,17.90
2022-10-23T04:04:25.298Z,18.75
2022-10-23T04:06:53.288Z,19.95
2022-10-23T04:09:21.875Z,18.48
2022-10-23T04:11:49.786Z,17.83
2022-10-23T04:14:18.041Z,19.08
2022-10-23T04:16:46.034Z,19.70
2022-10-23T04:19:13.619Z,18.75
2022-10-23T04:21:41.995Z,18.40
2022-10-23T04:24:09.930Z,18.05
2022-10-23T04:26:38.044Z,18.00
2022-10-23T04:29:06.054Z,17.27
2022-10-23T04:31:33.470Z,16.98
2022-10-23T04:34:01.250Z,18.60
2022-10-23T04:36:33.036Z,17.95
2022-10-23T04:39:09.252Z,17.10
2022-10-23T04:41:39.008Z,16.08
2022-10-23T04:44:07.437Z,17.58
2022-10-23T04:46:38.926Z,17.17
2022-10-23T04:49:06.845Z,16.35
2022-10-23T04:51:49.932Z,16.92
2022-10-23T04:54:50.190Z,18.60
2022-10-23T04:57:20.650Z,18.17
2022-10-23T04:59:59.407Z,17.92
2022-10-23T05:02:27.826Z,18.77
2022-10-23T05:04:56.050Z,17.83
2022-10-23T05:07:42.814Z,16.63
2022-10-23T05:10:24.317Z,17.23
2022-10-23T05:13:12.020Z,15.93
2022-10-23T05:15:40.986Z,18.08
2022-10-23T05:18:21.384Z,17.38
2022-10-23T05:20:50.419Z,17.25
2022-10-23T05:23:19.064Z,18.40
2022-10-23T05:25:55.038Z,16.80
2022-10-23T05:28:22.959Z,16.25
2022-10-23T05:30:51.180Z,17.80
2022-10-23T05:33:19.236Z,16.77
2022-10-23T05:35:49.212Z,15.80
2022-10-23T05:38:17.686Z,14.63
2022-10-23T05:40:45.387Z,14.35
2022-10-23T05:43:19.753Z,15.63
2022-10-23T05:45:54.511Z,13.57
2022-10-23T05:48:46.252Z,13.45
2022-10-23T05:51:22.280Z,14.65
2022-10-23T05:53:56.076Z,13.75
2022-10-23T05:56:42.910Z,12.75
2022-10-23T05:59:22.893Z,12.25
2022-10-23T06:02:19.926Z,13.23
2022-10-23T06:04:53.885Z,14.85
2022-10-23T06:07:50.733Z,14.63
2022-10-23T06:10:19.766Z,15.13
2022-10-23T06:12:51.784Z,14.18
2022-10-23T06:15:19.619Z,14.90
2022-10-23T06:18:07.390Z,18.05
2022-10-23T06:20:39.668Z,16.50
2022-10-23T06:23:16.135Z,17.25
2022-10-23T06:26:02.453Z,17.70
2022-10-23T06:28:38.291Z,16.67
2022-10-23T06:31:06.933Z,17.90
2022-10-23T06:33:35.064Z,19.73
2022-10-23T06:36:06.115Z,20.33
2022-10-23T06:38:37.073Z,19.10
2022-10-23T06:41:05.508Z,18.48
2022-10-23T06:43:37.147Z,17.98
2022-10-23T06:46:13.660Z,19.55
2022-10-23T06:49:10.027Z,18.42
2022-10-23T06:51:45.548Z,17.77
2022-10-23T06:54:15.160Z,16.58
2022-10-23T06:57:03.363Z,16.27
2022-10-23T06:59:40.175Z,13.65
2022-10-23T07:02:10.483Z,16.23
2022-10-23T07:04:41.198Z,15.77
2022-10-23T07:07:15.097Z,15.90
2022-10-23T07:09:46.463Z,14.63
2022-10-23T07:12:17.186Z,12.75
2022-10-23T07:14:51.321Z,13.65
2022-10-23T07:17:19.237Z,14.60
2022-10-23T07:19:47.118Z,12.52
2022-10-23T07:22:16.658Z,11.23
2022-10-23T07:25:25.277Z,11.68
2022-10-23T07:27:55.863Z,11.75
2022-10-23T07:30:25.945Z,11.60
2022-10-23T07:32:55.887Z,11.65
2022-10-23T07:35:41.309Z,11.45
2022-10-23T07:38:13.847Z,11.40
2022-10-23T07:40:47.928Z,11.07
2022-10-23T07:43:20.906Z,11.93
2022-10-23T07:45:49.987Z,10.70
2022-10-23T07:48:25.138Z,12.23
2022-10-23T07:51:01.615Z,11.85
2022-10-23T07:53:29.710Z,11.63
2022-10-23T07:56:11.197Z,13.90
2022-10-23T07:59:01.838Z,13.45
2022-10-23T08:01:32.449Z,14.30
2022-10-23T08:04:01.183Z,13.93
2022-10-23T08:06:29.650Z,12.32
2022-10-23T08:09:02.247Z,12.68
2022-10-23T08:11:35.827Z,13.57
2022-10-23T08:14:06.906Z,13.18
2022-10-23T08:16:36.873Z,13.80
2022-10-23T08:19:06.622Z,10.48
2022-10-23T08:21:36.891Z,10.90
2022-10-23T08:24:05.355Z,8.95
2022-10-23T08:26:33.243Z,8.20
2022-10-23T08:29:01.176Z,7.15
2022-10-23T08:31:29.203Z,6.55
2022-10-23T08:34:13.959Z,5.85
2022-10-23T08:36:43.010Z,5.68
2022-10-23T08:39:10.981Z,7.43
2022-10-23T08:41:43.527Z,7.05
2022-10-23T08:44:24.774Z,7.15
2022-10-23T08:47:02.814Z,6.40
2022-10-23T08:49:52.316Z,6.10
2022-10-23T08:52:27.060Z,6.32
2022-10-23T08:55:05.393Z,5.97
2022-10-23T08:57:43.722Z,6.53
2022-10-23T09:00:16.698Z,6.63
2022-10-23T09:02:46.800Z,4.47
2022-10-23T09:05:20.211Z,3.05
2022-10-23T09:08:05.509Z,3.25
2022-10-23T09:10:33.284Z,1.80
2022-10-23T09:13:15.935Z,1.63
2022-10-23T09:15:50.203Z,2.17
2022-10-23T09:18:17.774Z,1.30
2022-10-23T09:20:46.908Z,1.10
2022-10-23T09:23:19.140Z,1.23
2022-10-23T09:25:48.550Z,1.30
2022-10-23T09:28:23.896Z,1.40
2022-10-23T09:30:52.321Z,1.67
2022-10-23T09:33:23.355Z,2.53
2022-10-23T09:35:57.259Z,1.42
2022-10-23T09:38:27.721Z,1.50
2022-10-23T09:40:56.125Z,1.50
2022-10-23T09:43:27.406Z,1.52
2022-10-23T09:46:03.404Z,1.55
2022-10-23T09:48:31.629Z,1.25
2022-10-23T09:51:00.810Z,1.40
2022-10-23T09:53:54.757Z,1.80
2022-10-23T09:56:30.926Z,1.70
2022-10-23T09:59:03.477Z,2.75
2022-10-23T10:01:33.411Z,1.38
2022-10-23T10:04:30.807Z,1.50
2022-10-23T10:06:59.546Z,1.60
2022-10-23T10:09:27.414Z,1.30
2022-10-23T10:11:59.009Z,2.33
2022-10-23T10:17:06.483Z,1.33
2022-10-23T10:19:45.058Z,1.77
2022-10-23T10:22:33.558Z,1.73
2022-10-23T10:25:20.689Z,1.45
2022-10-23T10:28:03.616Z,1.40
2022-10-23T10:30:49.269Z,1.73
2022-10-23T10:33:17.794Z,2.15
2022-10-23T10:35:48.968Z,2.35
2022-10-23T10:38:22.535Z,2.30
2022-10-23T10:41:09.211Z,2.40
2022-10-23T10:43:37.196Z,3.08
2022-10-23T10:46:13.363Z,2.58
2022-10-23T10:49:21.797Z,2.30
2022-10-23T10:52:15.637Z,2.28
2022-10-23T10:54:55.350Z,2.53
2022-10-23T10:57:29.217Z,2.10
2022-10-23T10:59:58.375Z,2.20
2022-10-23T11:02:30.315Z,1.52
2022-10-23T11:05:01.794Z,1.85
2022-10-23T11:07:35.155Z,2.33
2022-10-23T11:10:05.358Z,2.50
2022-10-23T11:12:33.286Z,2.45
2022-10-23T11:15:01.171Z,3.05
2022-10-23T11:17:39.104Z,3.55
2022-10-23T11:20:14.874Z,3.67
2022-10-23T11:22:46.553Z,3.53
2022-10-23T11:25:14.150Z,3.42
2022-10-23T11:28:04.362Z,3.28
2022-10-23T11:30:43.995Z,2.90
2022-10-23T11:33:11.543Z,3.08
2022-10-23T11:35:49.078Z,2.90
2022-10-23T11:38:18.604Z,3.13
2022-10-23T11:43:31.102Z,3.70
2022-10-23T11:45:59.341Z,3.30
2022-10-23T11:48:44.276Z,3.30
2022-10-23T11:51:30.592Z,3.38
2022-10-23T11:54:24.841Z,2.95
2022-10-23T11:57:11.282Z,3.60
2022-10-23T11:59:47.917Z,2.83
2022-10-23T12:02:18.919Z,2.58
2022-10-23T12:04:47.941Z,2.80
2022-10-23T12:07:18.378Z,2.92
2022-10-23T12:09:52.622Z,2.47
2022-10-23T12:12:28.499Z,2.33
2022-10-23T12:15:18.806Z,2.10
2022-10-23T12:17:47.935Z,3.35
2022-10-23T12:20:37.897Z,2.03
2022-10-23T12:23:14.698Z,1.70
2022-10-23T12:26:19.958Z,1.58
2022-10-23T12:29:07.382Z,2.03
2022-10-23T12:32:03.862Z,1.50
2022-10-23T12:34:49.820Z,1.88
2022-10-23T12:37:38.528Z,1.67
2022-10-23T12:40:10.388Z,1.70
2022-10-23T12:42:38.653Z,1.55
2022-10-23T12:45:21.509Z,1.70
2022-10-23T12:47:50.021Z,1.60
2022-10-23T12:50:18.990Z,1.85
2022-10-23T12:53:01.265Z,1.50
2022-10-23T12:55:45.651Z,1.83
2022-10-23T12:58:25.404Z,1.60
2022-10-23T13:01:02.719Z,1.75
2022-10-23T13:03:31.757Z,1.48
2022-10-23T13:06:04.082Z,1.40
2022-10-23T13:08:41.648Z,1.60
2022-10-23T13:11:28.617Z,1.50
2022-10-23T13:13:59.172Z,1.60
2022-10-23T13:16:27.234Z,1.63
2022-10-23T13:18:55.130Z,1.33
2022-10-23T13:21:29.818Z,2.00
2022-10-23T13:23:57.486Z,1.50
2022-10-23T13:26:45.338Z,1.30
2022-10-23T13:29:19.559Z,1.45
2022-10-23T13:31:47.143Z,1.20
2022-10-23T13:34:24.967Z,1.42
2022-10-23T13:36:57.385Z,1.60
2022-10-23T13:39:26.149Z,1.52
2022-10-23T13:41:53.942Z,1.67
2022-10-23T13:44:23.031Z,1.60
2022-10-23T13:46:52.198Z,1.90
2022-10-23T13:49:20.868Z,1.65
2022-10-23T13:51:54.752Z,1.58
2022-10-23T13:56:56.146Z,1.42
2022-10-23T13:59:24.411Z,1.50
2022-10-23T14:01:52.878Z,1.60
2022-10-23T14:04:21.310Z,1.50
2022-10-23T14:06:49.170Z,1.60
2022-10-23T14:09:18.365Z,1.73
2022-10-23T14:11:46.164Z,1.58
2022-10-23T14:14:13.716Z,1.52
2022-10-23T14:16:41.225Z,1.70
2022-10-23T14:19:09.360Z,1.42
2022-10-23T14:21:36.882Z,1.17
2022-10-23T14:24:04.467Z,1.70
2022-10-23T14:26:32.842Z,1.55
2022-10-23T14:29:04.215Z,1.20
2022-10-23T14:31:36.036Z,1.23
2022-10-23T14:34:03.616Z,1.45
2022-10-23T14:36:38.762Z,1.30
2022-10-23T14:39:17.741Z,1.10
2022-10-23T14:41:45.439Z,1.13
2022-10-23T14:44:13.174Z,1.27
2022-10-23T14:46:40.699Z,1.40
2022-10-23T14:49:08.271Z,1.25
2022-10-23T14:51:36.515Z,1.65
2022-10-23T14:54:08.163Z,1.50
2022-10-23T14:56:40.843Z,1.60
2022-10-23T14:59:10.181Z,2.50
2022-10-23T15:01:45.381Z,1.40
2022-10-23T15:04:15.340Z,1.30
2022-10-23T15:06:43.301Z,1.70
2022-10-23T15:09:10.972Z,1.45
2022-10-23T15:11:38.839Z,1.67
2022-10-23T15:14:06.695Z,1.45
2022-10-23T15:16:41.087Z,1.27
2022-10-23T15:19:17.132Z,1.40
2022-10-23T15:21:49.892Z,1.35
2022-10-23T15:24:18.629Z,1.25
2022-10-23T15:26:46.445Z,1.27
2022-10-23T15:29:15.008Z,1.10
2022-10-23T15:31:45.306Z,1.20
2022-10-23T15:34:18.212Z,1.20
2022-10-23T15:36:47.113Z,1.00
2022-10-23T15:39:17.660Z,0.80
2022-10-23T15:41:45.362Z,0.88
2022-10-23T15:44:16.124Z,1.02
2022-10-23T15:46:44.109Z,1.50
2022-10-23T15:49:12.258Z,1.00
2022-10-23T15:51:39.959Z,1.02
2022-10-23T15:54:09.519Z,0.80
2022-10-23T15:56:37.434Z,1.10
2022-10-23T15:59:04.879Z,1.00
2022-10-23T16:01:32.466Z,1.30
2022-10-23T16:04:00.110Z,1.10
2022-10-23T16:06:27.722Z,0.98
2022-10-23T16:08:55.298Z,1.00
2022-10-23T16:11:26.341Z,1.20
2022-10-23T16:13:58.932Z,1.38
2022-10-23T16:16:28.031Z,1.38
2022-10-23T16:18:56.064Z,1.52
2022-10-23T16:21:26.452Z,1.40
2022-10-23T16:23:55.610Z,1.43
2022-10-23T16:26:24.092Z,1.90
2022-10-23T16:28:59.344Z,1.15
2022-10-23T16:31:27.558Z,1.80
2022-10-23T16:33:55.358Z,1.30
2022-10-23T16:36:23.191Z,1.30
2022-10-23T16:39:12.422Z,1.40
2022-10-23T16:41:58.994Z,1.80
2022-10-23T16:44:34.979Z,1.83
2022-10-23T16:47:05.997Z,1.50
2022-10-23T16:49:34.017Z,1.80
2022-10-23T16:52:01.582Z,1.98
2022-10-23T16:54:29.108Z,2.00
2022-10-23T16:56:57.368Z,1.80
2022-10-23T16:59:25.213Z,1.50
2022-10-23T17:01:53.533Z,2.08
2022-10-23T17:04:21.115Z,1.80
2022-10-23T17:06:49.070Z,2.83
2022-10-23T17:09:19.262Z,4.53
2022-10-23T17:11:47.983Z,3.42
2022-10-23T17:14:17.649Z,4.32
2022-10-23T17:16:48.977Z,1.83
2022-10-23T17:19:43.881Z,2.20
2022-10-23T17:22:10.741Z,3.45
2022-10-23T17:27:06.850Z,1.77
2022-10-23T17:29:36.075Z,2.20
2022-10-23T17:32:04.647Z,2.22
2022-10-23T17:34:32.034Z,2.10
2022-10-23T17:36:59.563Z,2.03
2022-10-23T17:39:28.321Z,2.17
2022-10-23T17:41:56.566Z,3.20
2022-10-23T17:44:24.328Z,2.80
2022-10-23T17:46:53.651Z,11.30
2022-10-23T17:49:22.357Z,8.52
2022-10-23T17:51:54.942Z,3.53
2022-10-23T17:54:23.197Z,3.03
2022-10-23T17:56:51.027Z,3.38
2022-10-23T17:59:19.777Z,3.90
2022-10-23T18:01:48.625Z,12.23
2022-10-23T18:04:19.144Z,7.18
2022-10-23T18:06:51.455Z,7.95
2022-10-23T18:09:19.980Z,7.45
2022-10-23T18:11:48.700Z,8.27
2022-10-23T18:14:17.821Z,4.07
2022-10-23T18:16:45.832Z,4.93
2022-10-23T18:19:14.594Z,5.43
2022-10-23T18:21:42.079Z,5.70
2022-10-23T18:24:09.935Z,8.52
2022-10-23T18:26:39.257Z,8.90
2022-10-23T18:29:08.640Z,7.82
2022-10-23T18:31:37.817Z,6.32
2022-10-23T18:34:08.776Z,7.10
2022-10-23T18:36:39.802Z,7.93
2022-10-23T18:39:09.866Z,5.90
2022-10-23T18:41:40.319Z,9.30
2022-10-23T18:44:08.628Z,8.90
2022-10-23T18:46:36.769Z,10.77
2022-10-23T18:49:04.758Z,10.82
2022-10-23T18:51:34.635Z,10.55
2022-10-23T18:54:05.250Z,9.63
2022-10-23T18:56:35.661Z,9.07
2022-10-23T18:59:05.043Z,10.05
2022-10-23T19:01:33.815Z,9.32
2022-10-23T19:04:02.416Z,10.68
2022-10-23T19:06:31.451Z,10.07
2022-10-23T19:08:59.123Z,10.60
2022-10-23T19:11:28.582Z,13.57
2022-10-23T19:13:55.999Z,14.25
2022-10-23T19:16:29.438Z,12.95
2022-10-23T19:19:12.738Z,13.30
2022-10-23T19:21:41.162Z,12.80
2022-10-23T19:24:11.755Z,12.77
2022-10-23T19:26:41.512Z,12.60
2022-10-23T19:29:10.896Z,13.90
2022-10-23T19:31:38.862Z,13.43
2022-10-23T19:34:06.693Z,13.50
2022-10-23T19:36:35.087Z,12.80
2022-10-23T19:39:03.046Z,12.25
2022-10-23T19:41:32.850Z,10.65
2022-10-23T19:44:00.718Z,10.90
2022-10-23T19:46:28.840Z,14.70
2022-10-23T19:48:56.772Z,13.70
2022-10-23T19:51:24.989Z,13.40
2022-10-23T19:53:54.791Z,15.60
2022-10-23T19:56:22.839Z,15.00
2022-10-23T19:58:51.190Z,17.27
2022-10-23T20:01:22.873Z,16.63
2022-10-23T20:03:51.244Z,15.10
2022-10-23T20:06:26.694Z,14.75
2022-10-23T20:08:54.744Z,14.25
2022-10-23T20:11:26.094Z,14.77
2022-10-23T20:13:54.162Z,14.18
2022-10-23T20:16:26.549Z,14.45
2022-10-23T20:18:54.935Z,13.88
2022-10-23T20:21:23.436Z,14.88
2022-10-23T20:23:51.140Z,13.73
2022-10-23T20:26:21.933Z,15.93
2022-10-23T20:28:52.515Z,14.82
2022-10-23T20:31:21.780Z,17.83
2022-10-23T20:33:50.401Z,17.05
2022-10-23T20:36:23.287Z,15.68
2022-10-23T20:38:51.677Z,25.42
2022-10-23T20:41:20.066Z,16.75
2022-10-23T20:43:47.800Z,17.98
2022-10-23T20:46:15.390Z,16.17
2022-10-23T20:48:44.875Z,19.55
2022-10-23T20:51:14.665Z,18.10
2022-10-23T20:53:42.863Z,16.27
2022-10-23T20:56:15.146Z,16.45
2022-10-23T20:58:43.357Z,16.65
2022-10-23T21:01:13.359Z,16.10
2022-10-23T21:03:40.987Z,16.35
2022-10-23T21:06:11.824Z,16.70
2022-10-23T21:08:39.882Z,18.27
2022-10-23T21:11:10.507Z,17.02
2022-10-23T21:13:38.296Z,18.38
2022-10-23T21:16:17.559Z,17.75
2022-10-23T21:18:46.875Z,16.75
2022-10-23T21:21:19.382Z,18.45
2022-10-23T21:23:48.943Z,17.20
2022-10-23T21:26:17.187Z,17.40
2022-10-23T21:28:56.354Z,18.30
2022-10-23T21:31:35.350Z,19.00
2022-10-23T21:34:03.327Z,19.52
2022-10-23T21:36:34.314Z,18.23
2022-10-23T21:39:04.830Z,18.42
2022-10-23T21:41:33.963Z,21.10
2022-10-23T21:44:04.359Z,21.65
2022-10-23T21:46:34.243Z,19.80
2022-10-23T21:49:02.547Z,17.88
2022-10-23T21:51:35.342Z,17.33
2022-10-23T21:54:05.376Z,17.00
2022-10-23T21:56:45.436Z,17.02
2022-10-23T21:59:15.083Z,10.75
2022-10-23T22:01:44.348Z,11.40
2022-10-23T22:04:14.273Z,9.98
2022-10-23T22:06:42.323Z,10.27
2022-10-23T22:09:12.139Z,9.23
2022-10-23T22:11:40.063Z,9.00
2022-10-23T22:14:07.803Z,8.50
2022-10-23T22:16:35.358Z,7.85
2022-10-23T22:19:03.374Z,8.23
2022-10-23T22:21:31.618Z,6.50
2022-10-23T22:24:00.717Z,6.38
2022-10-23T22:26:33.062Z,6.15
2022-10-23T22:29:04.262Z,5.63
2022-10-23T22:31:33.888Z,5.47
2022-10-23T22:34:13.214Z,4.65
2022-10-23T22:36:50.987Z,3.70
2022-10-23T22:39:19.054Z,3.65
2022-10-23T22:41:47.663Z,3.10
2022-10-23T22:44:15.626Z,2.53
2022-10-23T22:46:43.934Z,2.45
2022-10-23T22:49:11.424Z,2.15
2022-10-23T22:51:39.854Z,2.10
2022-10-23T22:54:07.361Z,1.85
2022-10-23T22:56:35.466Z,1.50
2022-10-23T22:59:04.078Z,1.60
2022-10-23T23:01:37.109Z,1.35
2022-10-23T23:04:19.546Z,1.67
2022-10-23T23:06:52.971Z,1.70
2022-10-23T23:09:20.791Z,1.50
2022-10-23T23:11:52.563Z,1.92
2022-10-23T23:14:23.782Z,1.20
2022-10-23T23:16:53.057Z,1.33
2022-10-23T23:19:22.941Z,1.67
2022-10-23T23:21:50.975Z,1.50
2022-10-23T23:24:18.780Z,2.00
2022-10-23T23:26:46.166Z,1.80
2022-10-23T23:29:14.113Z,1.85
2022-10-23T23:31:41.632Z,1.80
2022-10-23T23:34:09.124Z,1.83
2022-10-23T23:36:37.163Z,1.60
2022-10-23T23:41:38.106Z,2.25
2022-10-23T23:44:06.086Z,2.58
2022-10-23T23:46:33.754Z,1.75
2022-10-23T23:49:01.309Z,1.83
2022-10-23T23:51:29.237Z,2.03
2022-10-23T23:53:57.041Z,2.00
2022-10-23T23:56:25.102Z,1.77
2022-10-23T23:58:53.125Z,1.90
